createdAt,value
2022-08-17T00:01:51.730Z,64.50
2022-08-17T00:04:20.479Z,64.68
2022-08-17T00:06:49.281Z,64.63
2022-08-17T00:09:19.014Z,64.90
2022-08-17T00:12:40.660Z,64.61
2022-08-17T00:14:36.568Z,64.87
2022-08-17T00:17:04.783Z,64.91
2022-08-17T00:19:32.878Z,65.65
2022-08-17T00:22:32.107Z,65.73
2022-08-17T00:24:47.683Z,65.16
2022-08-17T00:27:14.499Z,64.95
2022-08-17T00:29:42.224Z,65.06
2022-08-17T00:33:12.093Z,65.27
2022-08-17T00:34:55.786Z,65.14
2022-08-17T00:37:22.653Z,65.33
2022-08-17T00:39:49.412Z,65.12
2022-08-17T00:42:19.681Z,65.18
2022-08-17T00:44:46.550Z,65.14
2022-08-17T00:47:13.218Z,65.12
2022-08-17T00:49:40.238Z,65.30
2022-08-17T00:52:15.753Z,65.53
2022-08-17T00:54:47.122Z,65.67
2022-08-17T00:57:34.794Z,65.70
2022-08-17T01:00:08.949Z,65.55
2022-08-17T01:02:42.754Z,65.50
2022-08-17T01:05:20.886Z,65.87
2022-08-17T01:07:51.022Z,65.88
2022-08-17T01:10:59.360Z,66.02
2022-08-17T01:13:11.357Z,65.81
2022-08-17T01:15:46.189Z,65.91
2022-08-17T01:18:14.210Z,66.05
2022-08-17T01:20:52.940Z,65.93
2022-08-17T01:23:22.443Z,65.96
2022-08-17T01:25:55.291Z,66.35
2022-08-17T01:28:52.832Z,66.18
2022-08-17T01:31:12.605Z,66.39
2022-08-17T01:33:39.551Z,66.57
2022-08-17T01:36:07.652Z,66.49
2022-08-17T01:38:39.356Z,66.57
2022-08-17T01:41:14.380Z,66.64
2022-08-17T01:43:49.134Z,66.46
2022-08-17T01:46:23.426Z,66.28
2022-08-17T01:48:51.571Z,66.20
2022-08-17T01:51:19.112Z,67.14
2022-08-17T01:53:52.534Z,66.63
2022-08-17T01:56:23.011Z,66.65
2022-08-17T01:58:50.138Z,66.81
2022-08-17T02:01:23.923Z,66.66
2022-08-17T02:03:54.561Z,66.57
2022-08-17T02:06:29.833Z,66.84
2022-08-17T02:09:03.052Z,66.64
2022-08-17T02:11:32.822Z,66.98
2022-08-17T02:14:03.504Z,66.70
2022-08-17T02:16:37.332Z,66.70
2022-08-17T02:19:09.516Z,66.82
2022-08-17T02:21:38.203Z,66.53
2022-08-17T02:24:11.505Z,66.46
2022-08-17T02:26:42.958Z,66.65
2022-08-17T02:29:12.129Z,66.53
2022-08-17T02:31:43.853Z,66.43
2022-08-17T02:34:16.089Z,66.47
2022-08-17T02:36:45.122Z,66.68
2022-08-17T02:39:14.025Z,66.20
2022-08-17T02:41:42.827Z,66.77
2022-08-17T02:44:13.851Z,67.20
2022-08-17T02:47:04.601Z,67.33
2022-08-17T02:49:32.561Z,67.12
2022-08-17T02:52:02.988Z,67.61
2022-08-17T02:54:41.233Z,67.52
2022-08-17T02:57:15.813Z,67.57
2022-08-17T02:59:48.766Z,67.69
2022-08-17T03:02:17.480Z,67.31
2022-08-17T03:04:45.302Z,67.52
2022-08-17T03:07:16.285Z,67.61
2022-08-17T03:09:45.579Z,67.42
2022-08-17T03:12:18.198Z,67.43
2022-08-17T03:14:57.194Z,67.91
2022-08-17T03:20:16.644Z,67.53
2022-08-17T03:22:53.643Z,67.87
2022-08-17T03:28:12.137Z,67.70
2022-08-17T03:30:43.246Z,68.09
2022-08-17T03:33:13.656Z,67.86
2022-08-17T03:35:42.096Z,67.91
2022-08-17T03:38:12.635Z,67.78
2022-08-17T03:40:57.160Z,67.88
2022-08-17T03:43:31.239Z,67.81
2022-08-17T03:46:28.943Z,68.29
2022-08-17T03:49:27.997Z,67.97
2022-08-17T03:52:15.962Z,68.14
2022-08-17T03:55:02.598Z,68.45
2022-08-17T03:57:30.401Z,68.46
2022-08-17T03:59:57.310Z,68.47
2022-08-17T04:02:30.386Z,68.33
2022-08-17T04:04:57.525Z,68.62
2022-08-17T04:07:27.488Z,68.31
2022-08-17T04:09:54.816Z,68.53
2022-08-17T04:12:23.674Z,68.48
2022-08-17T04:14:53.763Z,68.37
2022-08-17T04:17:27.062Z,68.29
2022-08-17T04:19:54.686Z,68.82
2022-08-17T04:22:31.095Z,68.93
2022-08-17T04:25:14.645Z,68.78
2022-08-17T04:27:41.257Z,68.66
2022-08-17T04:30:08.710Z,68.96
2022-08-17T04:33:18.071Z,69.09
2022-08-17T04:35:47.863Z,68.58
2022-08-17T04:38:19.371Z,68.74
2022-08-17T04:41:05.068Z,68.85
2022-08-17T04:43:33.990Z,69.16
2022-08-17T04:46:07.171Z,69.16
2022-08-17T04:48:40.178Z,68.95
2022-08-17T04:51:23.202Z,69.08
2022-08-17T04:53:54.489Z,69.06
2022-08-17T04:56:23.573Z,69.10
2022-08-17T04:58:52.995Z,69.26
2022-08-17T05:01:24.025Z,69.14
2022-08-17T05:03:52.911Z,69.66
2022-08-17T05:06:19.753Z,69.65
2022-08-17T05:08:46.585Z,69.63
2022-08-17T05:11:13.342Z,69.78
2022-08-17T05:13:40.176Z,69.86
2022-08-17T05:16:07.199Z,69.76
2022-08-17T05:18:33.967Z,70.19
2022-08-17T05:21:00.898Z,70.43
2022-08-17T05:23:37.843Z,70.34
2022-08-17T05:26:26.153Z,70.23
2022-08-17T05:29:00.538Z,70.24
2022-08-17T05:31:30.578Z,70.20
2022-08-17T05:33:57.772Z,70.10
2022-08-17T05:36:42.950Z,70.23
2022-08-17T05:39:17.054Z,70.36
2022-08-17T05:41:46.100Z,70.32
2022-08-17T05:44:12.739Z,69.98
2022-08-17T05:46:42.015Z,70.33
2022-08-17T05:49:09.581Z,70.32
2022-08-17T05:52:04.446Z,70.30
2022-08-17T05:55:13.135Z,70.31
2022-08-17T05:57:56.258Z,70.21
2022-08-17T06:00:31.899Z,70.37
2022-08-17T06:03:06.826Z,70.30
2022-08-17T06:05:55.404Z,70.43
2022-08-17T06:09:00.358Z,70.34
2022-08-17T06:11:53.971Z,70.24
2022-08-17T06:14:32.486Z,70.55
2022-08-17T06:17:04.901Z,70.38
2022-08-17T06:19:47.447Z,70.86
2022-08-17T06:22:16.660Z,70.48
2022-08-17T06:24:52.097Z,70.64
2022-08-17T06:27:21.792Z,70.75
2022-08-17T06:29:57.446Z,70.54
2022-08-17T06:32:25.270Z,71.04
2022-08-17T06:34:53.152Z,70.88
2022-08-17T06:37:42.953Z,71.40
2022-08-17T06:40:12.518Z,71.08
2022-08-17T06:43:05.850Z,71.25
2022-08-17T06:45:49.400Z,71.44
2022-08-17T06:48:25.566Z,71.70
2022-08-17T06:51:00.774Z,71.50
2022-08-17T06:53:36.321Z,71.45
2022-08-17T06:56:19.597Z,71.45
2022-08-17T06:58:47.044Z,71.85
2022-08-17T07:01:31.728Z,71.55
2022-08-17T07:04:15.686Z,71.73
2022-08-17T07:06:53.661Z,71.60
2022-08-17T07:09:29.564Z,71.71
2022-08-17T07:12:18.372Z,71.92
2022-08-17T07:14:54.135Z,71.33
2022-08-17T07:17:46.654Z,71.54
2022-08-17T07:20:16.127Z,71.46
2022-08-17T07:22:58.157Z,71.64
2022-08-17T07:25:28.830Z,71.74
2022-08-17T07:28:00.256Z,71.60
2022-08-17T07:30:37.277Z,71.46
2022-08-17T07:33:20.513Z,71.42
2022-08-17T07:35:49.965Z,71.32
2022-08-17T07:38:29.205Z,71.45
2022-08-17T07:41:02.262Z,71.64
2022-08-17T07:43:37.573Z,71.54
2022-08-17T07:46:43.110Z,71.46
2022-08-17T07:49:09.744Z,70.51
2022-08-17T07:51:48.360Z,71.00
2022-08-17T07:54:15.197Z,71.07
2022-08-17T07:56:49.984Z,70.70
2022-08-17T07:59:33.809Z,70.93
2022-08-17T08:02:10.144Z,70.61
2022-08-17T08:05:00.709Z,70.41
2022-08-17T08:08:05.933Z,70.53
2022-08-17T08:10:36.732Z,70.60
2022-08-17T08:13:30.812Z,70.37
2022-08-17T08:16:14.811Z,70.23
2022-08-17T08:18:54.772Z,70.07
2022-08-17T08:21:54.805Z,69.78
2022-08-17T08:24:42.873Z,69.18
2022-08-17T08:27:09.491Z,69.58
2022-08-17T08:29:48.325Z,68.70
2022-08-17T08:32:35.350Z,68.56
2022-08-17T08:35:44.673Z,68.43
2022-08-17T08:38:23.566Z,68.07
2022-08-17T08:40:53.339Z,67.98
2022-08-17T08:43:52.325Z,68.15
2022-08-17T08:46:22.981Z,67.65
2022-08-17T08:49:45.143Z,67.23
2022-08-17T08:52:40.727Z,66.99
2022-08-17T08:55:26.969Z,67.03
2022-08-17T08:58:02.896Z,66.70
2022-08-17T09:00:35.792Z,66.50
2022-08-17T09:03:52.691Z,66.48
2022-08-17T09:06:38.532Z,66.57
2022-08-17T09:09:43.757Z,66.37
2022-08-17T09:12:33.194Z,66.21
2022-08-17T09:15:16.966Z,66.04
2022-08-17T09:18:08.596Z,65.92
2022-08-17T09:20:50.157Z,65.93
2022-08-17T09:24:06.077Z,65.60
2022-08-17T09:26:37.998Z,65.60
2022-08-17T09:29:09.943Z,65.25
2022-08-17T09:32:04.017Z,65.12
2022-08-17T09:34:36.463Z,64.92
2022-08-17T09:37:13.166Z,64.57
2022-08-17T09:39:48.317Z,64.61
2022-08-17T09:42:23.768Z,64.37
2022-08-17T09:45:23.924Z,64.05
2022-08-17T09:47:58.039Z,64.05
2022-08-17T09:51:03.159Z,63.77
2022-08-17T09:53:19.819Z,63.91
2022-08-17T09:56:11.227Z,63.38
2022-08-17T09:59:17.345Z,63.18
2022-08-17T10:01:50.574Z,63.55
2022-08-17T10:04:32.306Z,63.51
2022-08-17T10:07:26.117Z,62.99
2022-08-17T10:10:19.794Z,62.74
2022-08-17T10:12:49.526Z,62.63
2022-08-17T10:15:44.260Z,62.32
2022-08-17T10:18:25.427Z,61.90
2022-08-17T10:21:23.705Z,61.80
2022-08-17T10:25:21.702Z,61.63
2022-08-17T10:27:54.888Z,61.89
2022-08-17T10:30:25.277Z,61.58
2022-08-17T10:32:57.122Z,61.72
2022-08-17T10:35:34.095Z,61.90
2022-08-17T10:38:38.215Z,61.48
2022-08-17T10:41:40.414Z,61.88
2022-08-17T10:44:39.449Z,61.67
2022-08-17T10:47:15.078Z,61.40
2022-08-17T10:49:54.030Z,61.82
2022-08-17T10:52:21.959Z,61.37
2022-08-17T10:54:51.440Z,61.71
2022-08-17T10:57:31.908Z,61.32
2022-08-17T11:00:02.919Z,61.04
2022-08-17T11:02:50.596Z,60.85
2022-08-17T11:05:32.779Z,61.05
2022-08-17T11:08:27.588Z,60.30
2022-08-17T11:11:12.427Z,60.41
2022-08-17T11:13:50.051Z,59.43
2022-08-17T11:16:35.533Z,59.41
2022-08-17T11:19:14.281Z,59.29
2022-08-17T11:22:07.477Z,59.08
2022-08-17T11:24:55.853Z,59.29
2022-08-17T11:27:36.637Z,58.97
2022-08-17T11:30:11.205Z,58.58
2022-08-17T11:32:54.748Z,58.19
2022-08-17T11:35:21.843Z,59.01
2022-08-17T11:38:16.002Z,58.13
2022-08-17T11:40:59.981Z,57.94
2022-08-17T11:43:44.479Z,58.50
2022-08-17T11:46:54.230Z,58.36
2022-08-17T11:50:03.757Z,58.61
2022-08-17T11:52:47.011Z,58.42
2022-08-17T11:55:44.763Z,57.90
2022-08-17T11:58:29.714Z,58.53
2022-08-17T12:00:59.570Z,58.08
2022-08-17T12:03:54.310Z,58.70
2022-08-17T12:06:44.243Z,58.90
2022-08-17T12:09:14.135Z,58.41
2022-08-17T12:12:13.728Z,58.44
2022-08-17T12:17:40.891Z,58.70
2022-08-17T12:20:40.610Z,58.62
2022-08-17T12:23:16.374Z,59.12
2022-08-17T12:26:15.246Z,58.90
2022-08-17T12:28:46.516Z,58.92
2022-08-17T12:31:26.683Z,59.15
2022-08-17T12:33:54.123Z,58.80
2022-08-17T12:36:24.851Z,58.73
2022-08-17T12:39:14.070Z,58.71
2022-08-17T12:41:47.219Z,58.60
2022-08-17T12:44:21.757Z,58.72
2022-08-17T12:47:01.862Z,58.65
2022-08-17T12:49:37.045Z,58.94
2022-08-17T12:52:17.036Z,58.67
2022-08-17T12:54:51.425Z,58.62
2022-08-17T12:57:31.351Z,58.43
2022-08-17T13:00:09.382Z,58.53
2022-08-17T13:02:41.385Z,58.94
2022-08-17T13:05:17.949Z,58.62
2022-08-17T13:07:46.648Z,58.49
2022-08-17T13:10:24.268Z,58.25
2022-08-17T13:12:52.962Z,58.75
2022-08-17T13:15:29.652Z,58.64
2022-08-17T13:17:59.313Z,58.40
2022-08-17T13:20:26.525Z,58.36
2022-08-17T13:22:57.209Z,58.22
2022-08-17T13:25:25.911Z,58.30
2022-08-17T13:27:54.323Z,58.08
2022-08-17T13:30:28.057Z,58.13
2022-08-17T13:32:57.091Z,57.89
2022-08-17T13:35:40.371Z,58.07
2022-08-17T13:38:15.273Z,58.03
2022-08-17T13:40:50.221Z,57.83
2022-08-17T13:43:48.627Z,57.54
2022-08-17T13:46:26.354Z,57.32
2022-08-17T13:49:06.044Z,57.32
2022-08-17T13:51:36.365Z,57.53
2022-08-17T13:54:05.684Z,57.93
2022-08-17T13:57:06.771Z,57.67
2022-08-17T13:59:55.196Z,58.06
2022-08-17T14:02:22.721Z,57.85
2022-08-17T14:04:53.893Z,57.74
2022-08-17T14:07:27.168Z,58.33
2022-08-17T14:09:57.930Z,57.90
2022-08-17T14:12:26.923Z,58.31
2022-08-17T14:14:59.612Z,58.53
2022-08-17T14:17:29.445Z,58.46
2022-08-17T14:19:56.176Z,58.47
2022-08-17T14:22:28.642Z,58.38
2022-08-17T14:24:57.841Z,58.18
2022-08-17T14:27:28.113Z,58.77
2022-08-17T14:29:55.974Z,58.14
2022-08-17T14:32:26.755Z,58.61
2022-08-17T14:34:56.932Z,58.35
2022-08-17T14:37:27.882Z,58.11
2022-08-17T14:39:57.069Z,58.54
2022-08-17T14:42:26.357Z,58.66
2022-08-17T14:44:54.966Z,58.50
2022-08-17T14:47:22.219Z,59.31
2022-08-17T14:49:49.302Z,60.00
2022-08-17T14:52:24.121Z,61.57
2022-08-17T14:54:53.061Z,62.31
2022-08-17T14:57:25.833Z,62.93
2022-08-17T15:00:02.293Z,63.17
2022-08-17T15:02:31.010Z,63.38
2022-08-17T15:05:05.588Z,63.71
2022-08-17T15:07:32.395Z,63.93
2022-08-17T15:10:01.459Z,64.18
2022-08-17T15:12:32.694Z,64.70
2022-08-17T15:15:01.121Z,65.00
2022-08-17T15:17:43.928Z,65.43
2022-08-17T15:20:18.130Z,65.90
2022-08-17T15:22:49.752Z,66.36
2022-08-17T15:25:19.365Z,66.63
2022-08-17T15:27:46.207Z,66.87
2022-08-17T15:30:13.815Z,67.25
2022-08-17T15:32:51.396Z,67.39
2022-08-17T15:35:28.315Z,67.87
2022-08-17T15:38:10.655Z,67.87
2022-08-17T15:40:40.484Z,68.16
2022-08-17T15:43:14.016Z,68.42
2022-08-17T15:45:41.028Z,68.39
2022-08-17T15:48:08.024Z,68.81
2022-08-17T15:50:35.198Z,69.03
2022-08-17T15:53:03.579Z,69.34
2022-08-17T15:55:32.187Z,69.57
2022-08-17T15:57:59.285Z,69.67
2022-08-17T16:00:28.462Z,69.67
2022-08-17T16:03:20.199Z,69.91
2022-08-17T16:05:43.543Z,70.13
2022-08-17T16:08:11.130Z,70.37
2022-08-17T16:10:38.075Z,70.27
2022-08-17T16:13:05.040Z,70.41
2022-08-17T16:15:51.042Z,70.67
2022-08-17T16:18:31.193Z,70.56
2022-08-17T16:21:23.548Z,70.42
2022-08-17T16:23:53.676Z,70.44
2022-08-17T16:26:22.923Z,70.42
2022-08-17T16:28:50.283Z,70.66
2022-08-17T16:31:17.327Z,70.45
2022-08-17T16:34:03.873Z,70.53
2022-08-17T16:36:32.035Z,71.25
2022-08-17T16:38:59.399Z,70.42
2022-08-17T16:41:45.265Z,70.56
2022-08-17T16:44:17.166Z,70.63
2022-08-17T16:46:45.572Z,70.85
2022-08-17T16:49:29.655Z,71.40
2022-08-17T16:52:01.697Z,72.63
2022-08-17T16:54:28.480Z,71.45
2022-08-17T16:56:55.788Z,71.58
2022-08-17T16:59:31.063Z,71.80
2022-08-17T17:02:12.966Z,71.85
2022-08-17T17:05:17.801Z,72.34
2022-08-17T17:08:09.208Z,72.09
2022-08-17T17:10:44.759Z,71.88
2022-08-17T17:13:34.501Z,71.95
2022-08-17T17:16:07.174Z,71.90
2022-08-17T17:18:49.115Z,71.94
2022-08-17T17:21:25.199Z,72.31
2022-08-17T17:24:01.107Z,72.16
2022-08-17T17:26:48.448Z,72.54
2022-08-17T17:29:27.371Z,72.07
2022-08-17T17:32:13.976Z,72.11
2022-08-17T17:34:50.873Z,72.01
2022-08-17T17:37:26.210Z,72.13
2022-08-17T17:40:00.102Z,71.92
2022-08-17T17:42:31.545Z,71.72
2022-08-17T17:45:20.120Z,71.75
2022-08-17T17:47:47.808Z,71.87
2022-08-17T17:50:18.056Z,71.97
2022-08-17T17:53:04.494Z,71.90
2022-08-17T17:55:31.159Z,71.98
2022-08-17T17:58:19.488Z,71.89
2022-08-17T18:00:54.089Z,71.95
2022-08-17T18:04:00.477Z,72.32
2022-08-17T18:06:45.373Z,71.99
2022-08-17T18:09:12.735Z,72.13
2022-08-17T18:11:59.051Z,72.07
2022-08-17T18:14:36.947Z,72.18
2022-08-17T18:17:03.966Z,72.15
2022-08-17T18:19:31.718Z,72.27
2022-08-17T18:22:07.860Z,72.03
2022-08-17T18:24:45.038Z,72.02
2022-08-17T18:27:34.009Z,71.97
2022-08-17T18:30:20.924Z,72.18
2022-08-17T18:32:48.046Z,72.36
2022-08-17T18:35:14.851Z,72.15
2022-08-17T18:37:44.933Z,72.04
2022-08-17T18:40:37.664Z,72.04
2022-08-17T18:43:24.349Z,72.00
2022-08-17T18:45:57.746Z,71.84
2022-08-17T18:48:33.082Z,71.80
2022-08-17T18:51:40.733Z,72.11
2022-08-17T18:54:21.287Z,71.81
2022-08-17T18:56:56.517Z,71.81
2022-08-17T18:59:28.757Z,71.93
2022-08-17T19:02:27.337Z,71.99
2022-08-17T19:05:26.002Z,71.57
2022-08-17T19:07:53.133Z,71.76
2022-08-17T19:10:28.280Z,71.48
2022-08-17T19:13:12.462Z,71.63
2022-08-17T19:16:15.046Z,71.62
2022-08-17T19:18:51.066Z,71.68
2022-08-17T19:21:40.322Z,71.64
2022-08-17T19:24:21.954Z,71.60
2022-08-17T19:26:56.767Z,71.58
2022-08-17T19:29:43.738Z,71.51
2022-08-17T19:32:14.109Z,71.55
2022-08-17T19:34:42.971Z,71.63
2022-08-17T19:37:28.140Z,71.80
2022-08-17T19:40:35.033Z,71.95
2022-08-17T19:43:21.963Z,71.60
2022-08-17T19:46:11.867Z,71.68
2022-08-17T19:49:06.709Z,71.89
2022-08-17T19:51:51.995Z,71.96
2022-08-17T19:54:35.073Z,71.77
2022-08-17T19:57:14.506Z,71.64
2022-08-17T19:59:57.044Z,71.59
2022-08-17T20:02:41.661Z,71.82
2022-08-17T20:05:17.348Z,71.41
2022-08-17T20:07:50.191Z,71.60
2022-08-17T20:10:34.536Z,71.02
2022-08-17T20:13:08.259Z,71.30
2022-08-17T20:15:39.570Z,70.94
2022-08-17T20:18:13.367Z,71.65
2022-08-17T20:20:58.584Z,71.40
2022-08-17T20:24:05.947Z,71.22
2022-08-17T20:26:58.802Z,71.72
2022-08-17T20:30:11.850Z,71.50
2022-08-17T20:32:48.869Z,71.24
2022-08-17T20:35:19.957Z,71.08
2022-08-17T20:38:04.627Z,71.17
2022-08-17T20:40:35.652Z,70.96
2022-08-17T20:43:33.719Z,71.18
2022-08-17T20:46:41.488Z,71.19
2022-08-17T20:49:11.168Z,71.70
2022-08-17T20:52:03.007Z,71.32
2022-08-17T20:54:42.162Z,71.83
2022-08-17T20:57:29.761Z,71.20
2022-08-17T20:59:59.468Z,71.30
2022-08-17T21:02:28.468Z,71.31
2022-08-17T21:05:02.007Z,71.48
2022-08-17T21:07:42.990Z,71.58
2022-08-17T21:10:14.084Z,71.32
2022-08-17T21:12:42.319Z,71.54
2022-08-17T21:15:20.109Z,71.71
2022-08-17T21:17:56.584Z,71.42
2022-08-17T21:20:33.209Z,71.07
2022-08-17T21:23:30.013Z,71.22
2022-08-17T21:26:35.785Z,71.54
2022-08-17T21:29:31.912Z,71.20
2022-08-17T21:31:59.737Z,71.66
2022-08-17T21:34:43.153Z,71.59
2022-08-17T21:37:18.905Z,71.45
2022-08-17T21:39:51.296Z,71.24
2022-08-17T21:42:25.156Z,71.04
2022-08-17T21:44:54.996Z,70.83
2022-08-17T21:47:26.682Z,70.86
2022-08-17T21:49:55.240Z,70.73
2022-08-17T21:52:26.977Z,70.55
2022-08-17T21:54:57.069Z,70.36
2022-08-17T21:57:29.421Z,70.10
2022-08-17T22:00:02.159Z,69.74
2022-08-17T22:02:34.450Z,69.89
2022-08-17T22:05:06.849Z,69.79
2022-08-17T22:07:58.736Z,69.37
2022-08-17T22:10:45.189Z,69.31
2022-08-17T22:13:18.095Z,69.36
2022-08-17T22:16:15.329Z,69.45
2022-08-17T22:18:57.638Z,69.60
2022-08-17T22:21:25.205Z,69.00
2022-08-17T22:24:04.558Z,69.01
2022-08-17T22:27:02.240Z,69.17
2022-08-17T22:29:53.195Z,69.09
2022-08-17T22:32:37.464Z,69.04
2022-08-17T22:35:26.701Z,68.97
2022-08-17T22:37:53.501Z,68.94
2022-08-17T22:40:32.816Z,68.98
2022-08-17T22:43:02.533Z,68.87
2022-08-17T22:45:30.498Z,68.72
2022-08-17T22:48:00.640Z,69.00
2022-08-17T22:50:33.134Z,68.84
2022-08-17T22:53:31.617Z,69.10
2022-08-17T22:56:16.937Z,68.75
2022-08-17T22:59:16.303Z,68.96
2022-08-17T23:01:45.629Z,69.01
2022-08-17T23:04:31.366Z,68.99
2022-08-17T23:06:58.343Z,68.96
2022-08-17T23:09:25.101Z,68.91
2022-08-17T23:11:58.602Z,69.08
2022-08-17T23:14:31.776Z,69.04
2022-08-17T23:17:01.840Z,69.07
2022-08-17T23:19:31.746Z,69.08
2022-08-17T23:22:00.146Z,69.19
2022-08-17T23:24:29.960Z,69.04
2022-08-17T23:26:58.159Z,69.44
2022-08-17T23:29:29.415Z,69.34
2022-08-17T23:32:00.066Z,69.48
2022-08-17T23:34:28.151Z,69.05
2022-08-17T23:36:55.850Z,69.23
2022-08-17T23:39:24.514Z,69.43
2022-08-17T23:41:54.637Z,69.52
2022-08-17T23:44:26.633Z,69.15
2022-08-17T23:46:54.136Z,69.40
2022-08-17T23:49:21.045Z,69.34
2022-08-17T23:51:48.941Z,69.46
2022-08-17T23:54:46.710Z,69.51
2022-08-17T23:57:17.604Z,69.67
2022-08-17T23:59:44.967Z,69.81
